Time,TemperatureF,DewpointF,PressureIn,WindDirection,WindDirectionDegrees,WindSpeedMPH,WindSpeedGustMPH,Humidity,HourlyPrecipIn,Conditions,Clouds,dailyrainin,SoftwareType,DateUTC
2013-01-04 00:07:00,15.1,-2.4,30.55,ENE,68,0.0,0.0,45,0.00,,,0.00,meteohub,2013-01-04 07:07:00,
2013-01-04 00:12:00,14.9,-2.6,30.55,ENE,68,0.0,0.0,45,0.00,,,0.00,meteohub,2013-01-04 07:12:00,
2013-01-04 00:17:00,14.9,-2.6,30.55,ENE,68,0.0,0.0,45,0.00,,,0.00,meteohub,2013-01-04 07:17:00,
2013-01-04 00:22:00,14.9,-2.6,30.55,ENE,68,0.0,0.0,45,0.00,,,0.00,meteohub,2013-01-04 07:22:00,
2013-01-04 00:27:00,14.5,-2.9,30.56,ENE,68,0.0,0.0,45,0.00,,,0.00,meteohub,2013-01-04 07:27:00,
2013-01-04 00:32:00,14.4,-3.1,30.56,ENE,68,0.0,0.0,45,0.00,,,0.00,meteohub,2013-01-04 07:32:00,
2013-01-04 00:37:00,14.4,-3.1,30.56,ENE,68,0.0,0.0,45,0.00,,,0.00,meteohub,2013-01-04 07:37:00,
2013-01-04 00:42:00,14.4,-2.6,30.56,ENE,68,0.0,0.0,46,0.00,,,0.00,meteohub,2013-01-04 07:42:00,
2013-01-04 00:47:00,14.7,-2.2,30.56,NNE,22,0.0,0.0,46,0.00,,,0.00,meteohub,2013-01-04 07:47:00,
2013-01-04 00:52:00,14.9,-2.6,30.55,NE,45,0.0,0.0,45,0.00,,,0.00,meteohub,2013-01-04 07:52:00,
2013-01-04 00:57:00,14.9,-2.6,30.55,NE,45,0.0,0.0,45,0.00,,,0.00,meteohub,2013-01-04 07:57:00,
2013-01-04 01:02:00,14.9,-2.2,30.55,NE,45,0.0,0.0,46,0.00,,,0.00,meteohub,2013-01-04 08:02:00,
2013-01-04 01:07:00,15.1,-2.0,30.55,NE,45,0.0,0.0,46,0.00,,,0.00,meteohub,2013-01-04 08:07:00,
2013-01-04 01:12:00,15.1,-2.0,30.55,NE,45,0.0,0.0,46,0.00,,,0.00,meteohub,2013-01-04 08:12:00,
2013-01-04 01:17:00,14.9,-2.2,30.55,NE,45,0.0,0.0,46,0.00,,,0.00,meteohub,2013-01-04 08:17:00,
2013-01-04 01:22:00,14.7,-2.2,30.56,NE,45,0.0,0.0,46,0.00,,,0.00,meteohub,2013-01-04 08:22:00,
2013-01-04 01:27:00,14.7,-2.2,30.56,NE,45,0.0,0.0,46,0.00,,,0.00,meteohub,2013-01-04 08:27:00,
2013-01-04 01:32:00,14.7,-2.2,30.56,NE,45,0.0,0.0,46,0.00,,,0.00,meteohub,2013-01-04 08:32:00,
2013-01-04 01:37:00,14.7,-2.2,30.56,NE,45,0.0,0.0,46,0.00,,,0.00,meteohub,2013-01-04 08:37:00,
2013-01-04 01:42:00,14.9,-2.2,30.55,North,0,0.0,0.0,46,0.00,,,0.00,meteohub,2013-01-04 08:42:00,
2013-01-04 01:47:00,14.7,-2.7,30.56,North,0,0.0,0.0,45,0.00,,,0.00,meteohub,2013-01-04 08:47:00,
2013-01-04 01:52:00,14.7,-2.7,30.56,North,0,0.0,0.0,45,0.00,,,0.00,meteohub,2013-01-04 08:52:00,
2013-01-04 01:57:00,14.5,-2.9,30.56,North,0,0.0,0.0,45,0.00,,,0.00,meteohub,2013-01-04 08:57:00,
2013-01-04 02:02:00,14.7,-2.7,30.56,ENE,68,0.0,0.0,45,0.00,,,0.00,meteohub,2013-01-04 09:02:00,
2013-01-04 02:07:00,14.9,-2.6,30.55,NNE,22,0.0,0.0,45,0.00,,,0.00,meteohub,2013-01-04 09:07:00,
2013-01-04 02:12:00,14.9,-2.6,30.55,NNE,22,0.0,0.0,45,0.00,,,0.00,meteohub,2013-01-04 09:12:00,
2013-01-04 02:17:00,14.9,-2.6,30.55,NNE,22,0.0,0.0,45,0.00,,,0.00,meteohub,2013-01-04 09:17:00,
2013-01-04 02:22:00,15.1,-2.4,30.55,NNE,22,0.0,0.0,45,0.00,,,0.00,meteohub,2013-01-04 09:22:00,
2013-01-04 02:27:00,14.9,-2.6,30.55,NNE,22,0.0,0.0,45,0.00,,,0.00,meteohub,2013-01-04 09:27:00,
2013-01-04 02:32:00,14.7,-2.7,30.56,NNE,22,0.0,0.0,45,0.00,,,0.00,meteohub,2013-01-04 09:32:00,
2013-01-04 02:37:00,14.5,-2.9,30.56,NNE,22,0.0,0.0,45,0.00,,,0.00,meteohub,2013-01-04 09:37:00,
2013-01-04 02:42:00,14.5,-2.9,30.56,NNE,22,0.0,0.0,45,0.00,,,0.00,meteohub,2013-01-04 09:42:00,
2013-01-04 02:47:00,14.4,-3.1,30.56,NNE,22,0.0,0.0,45,0.00,,,0.00,meteohub,2013-01-04 09:47:00,
2013-01-04 02:52:00,14.4,-3.1,30.56,NNE,22,0.0,0.0,45,0.00,,,0.00,meteohub,2013-01-04 09:52:00,
2013-01-04 02:57:00,14.5,-2.9,30.56,NNE,22,0.0,0.0,45,0.00,,,0.00,meteohub,2013-01-04 09:57:00,
2013-01-04 03:02:00,14.5,-2.4,30.56,NNE,22,0.0,0.0,46,0.00,,,0.00,meteohub,2013-01-04 10:02:00,
2013-01-04 03:07:00,14.5,-2.4,30.56,NNE,22,0.0,0.0,46,0.00,,,0.00,meteohub,2013-01-04 10:07:00,
2013-01-04 03:12:00,14.7,-2.2,30.56,NNE,22,0.0,0.0,46,0.00,,,0.00,meteohub,2013-01-04 10:12:00,
2013-01-04 03:17:00,14.7,-2.2,30.56,NNE,22,0.0,0.0,46,0.00,,,0.00,meteohub,2013-01-04 10:17:00,
2013-01-04 03:22:00,14.7,-2.2,30.56,NNE,22,0.0,0.0,46,0.00,,,0.00,meteohub,2013-01-04 10:22:00,
2013-01-04 03:27:00,14.7,-2.2,30.56,NNE,22,0.0,0.0,46,0.00,,,0.00,meteohub,2013-01-04 10:27:00,
2013-01-04 03:32:00,14.7,-2.2,30.56,NNE,22,0.0,0.0,46,0.00,,,0.00,meteohub,2013-01-04 10:32:00,
2013-01-04 03:42:00,14.9,-2.2,30.55,NNE,22,0.0,0.0,46,0.00,,,0.00,meteohub,2013-01-04 10:42:00,
2013-01-04 03:52:00,15.1,-2.0,30.55,NNE,22,0.0,0.0,46,0.00,,,0.00,meteohub,2013-01-04 10:52:00,
2013-01-04 03:57:00,15.1,-2.0,30.55,NNE,22,0.0,0.0,46,0.00,,,0.00,meteohub,2013-01-04 10:57:00,
2013-01-04 04:02:00,15.3,-1.8,30.55,NNE,22,0.0,0.0,46,0.00,,,0.00,meteohub,2013-01-04 11:02:00,
2013-01-04 04:07:00,15.1,-2.0,30.55,NNE,22,0.0,0.0,46,0.00,,,0.00,meteohub,2013-01-04 11:07:00,
2013-01-04 04:12:00,15.3,-1.8,30.55,NNE,22,0.0,0.0,46,0.00,,,0.00,meteohub,2013-01-04 11:12:00,
2013-01-04 04:17:00,15.1,-2.0,30.55,NNE,22,0.0,0.0,46,0.00,,,0.00,meteohub,2013-01-04 11:17:00,
2013-01-04 04:22:00,15.1,-2.0,30.55,NNE,22,0.0,0.0,46,0.00,,,0.00,meteohub,2013-01-04 11:22:00,
2013-01-04 04:27:00,15.1,-2.0,30.55,NNE,22,0.0,0.0,46,0.00,,,0.00,meteohub,2013-01-04 11:27:00,
2013-01-04 04:37:00,15.3,-1.8,30.55,NNE,22,0.0,0.0,46,0.00,,,0.00,meteohub,2013-01-04 11:37:00,
2013-01-04 04:42:00,15.3,-1.8,30.55,NNE,22,0.0,0.0,46,0.00,,,0.00,meteohub,2013-01-04 11:42:00,
2013-01-04 04:47:00,15.3,-1.8,30.55,NNE,22,0.0,0.0,46,0.00,,,0.00,meteohub,2013-01-04 11:47:00,
2013-01-04 04:57:00,15.1,-2.0,30.55,NNE,22,0.0,0.0,46,0.00,,,0.00,meteohub,2013-01-04 11:57:00,
2013-01-04 05:02:00,14.7,-2.2,30.56,NNE,22,0.0,0.0,46,0.00,,,0.00,meteohub,2013-01-04 12:02:00,
2013-01-04 05:12:00,14.4,-2.6,30.56,NNE,22,0.0,0.0,46,0.00,,,0.00,meteohub,2013-01-04 12:12:00,
2013-01-04 05:17:00,14.4,-2.6,30.56,NNE,22,0.0,0.0,46,0.00,,,0.00,meteohub,2013-01-04 12:17:00,
2013-01-04 05:22:00,14.2,-2.7,30.56,NNE,22,0.0,0.0,46,0.00,,,0.00,meteohub,2013-01-04 12:22:00,
2013-01-04 05:27:00,14.2,-2.4,30.56,NNE,22,0.0,0.0,47,0.00,,,0.00,meteohub,2013-01-04 12:27:00,
2013-01-04 05:32:00,13.8,-2.7,30.57,NNE,22,0.0,0.0,47,0.00,,,0.00,meteohub,2013-01-04 12:32:00,
2013-01-04 05:37:00,13.8,-2.7,30.57,NNE,22,0.0,0.0,47,0.00,,,0.00,meteohub,2013-01-04 12:37:00,
2013-01-04 05:42:00,13.8,-2.7,30.57,NNE,22,0.0,0.0,47,0.00,,,0.00,meteohub,2013-01-04 12:42:00,
2013-01-04 05:47:00,13.6,-2.7,30.57,NNE,22,0.0,0.0,47,0.00,,,0.00,meteohub,2013-01-04 12:47:00,
2013-01-04 05:52:00,13.6,-2.7,30.57,NNE,22,0.0,0.0,47,0.00,,,0.00,meteohub,2013-01-04 12:52:00,
2013-01-04 05:57:00,13.6,-2.7,30.57,NNE,22,0.0,0.0,47,0.00,,,0.00,meteohub,2013-01-04 12:57:00,
2013-01-04 06:02:00,13.8,-2.7,30.57,NNE,22,0.0,0.0,47,0.00,,,0.00,meteohub,2013-01-04 13:02:00,
2013-01-04 06:07:00,13.8,-2.7,30.57,NNE,22,0.0,0.0,47,0.00,,,0.00,meteohub,2013-01-04 13:07:00,
2013-01-04 06:12:00,13.8,-2.7,30.57,NNE,22,0.0,0.0,47,0.00,,,0.00,meteohub,2013-01-04 13:12:00,
2013-01-04 06:17:00,13.8,-2.7,30.57,NNE,22,0.0,0.0,47,0.00,,,0.00,meteohub,2013-01-04 13:17:00,
2013-01-04 06:22:00,13.8,-2.7,30.57,NNE,22,0.0,0.0,47,0.00,,,0.00,meteohub,2013-01-04 13:22:00,
2013-01-04 06:32:00,14.0,-2.0,30.56,NNE,22,0.0,0.0,48,0.00,,,0.00,meteohub,2013-01-04 13:32:00,
2013-01-04 06:37:00,13.8,-1.8,30.57,NNE,22,0.0,0.0,49,0.00,,,0.00,meteohub,2013-01-04 13:37:00,
2013-01-04 06:42:00,13.8,-1.8,30.57,NNE,22,0.0,0.0,49,0.00,,,0.00,meteohub,2013-01-04 13:42:00,
2013-01-04 06:47:00,13.8,-1.8,30.57,NNE,22,0.0,0.0,49,0.00,,,0.00,meteohub,2013-01-04 13:47:00,
2013-01-04 06:52:00,13.8,-1.8,30.57,NNE,22,0.0,0.0,49,0.00,,,0.00,meteohub,2013-01-04 13:52:00,
2013-01-04 06:57:00,13.8,-1.8,30.57,NNE,22,0.0,0.0,49,0.00,,,0.00,meteohub,2013-01-04 13:57:00,
2013-01-04 07:02:00,13.8,-1.8,30.57,NNE,22,0.0,0.0,49,0.00,,,0.00,meteohub,2013-01-04 14:02:00,
2013-01-04 07:07:00,13.8,-1.8,30.57,NNE,22,0.0,0.0,49,0.00,,,0.00,meteohub,2013-01-04 14:07:00,
2013-01-04 07:12:00,13.6,-2.0,30.57,NNE,22,0.0,0.0,49,0.00,,,0.00,meteohub,2013-01-04 14:12:00,
2013-01-04 07:17:00,13.6,-2.0,30.57,NNE,22,0.0,0.0,49,0.00,,,0.00,meteohub,2013-01-04 14:17:00,
2013-01-04 07:22:00,13.6,-2.0,30.57,NNE,22,0.0,0.0,49,0.00,,,0.00,meteohub,2013-01-04 14:22:00,
2013-01-04 07:27:00,13.6,-2.0,30.57,NNE,22,0.0,0.0,49,0.00,,,0.00,meteohub,2013-01-04 14:27:00,
2013-01-04 07:32:00,13.5,-2.2,30.57,NNE,22,0.0,0.0,49,0.00,,,0.00,meteohub,2013-01-04 14:32:00,
2013-01-04 07:37:00,13.5,-2.2,30.57,NNE,22,0.0,0.0,49,0.00,,,0.00,meteohub,2013-01-04 14:37:00,
2013-01-04 07:42:00,13.5,-2.2,30.57,NNE,22,0.0,0.0,49,0.00,,,0.00,meteohub,2013-01-04 14:42:00,
2013-01-04 07:47:00,13.6,-2.0,30.57,NNE,22,0.0,0.0,49,0.00,,,0.00,meteohub,2013-01-04 14:47:00,
2013-01-04 07:52:00,13.6,-2.0,30.57,NNE,22,0.0,0.0,49,0.00,,,0.00,meteohub,2013-01-04 14:52:00,
2013-01-04 07:57:00,13.8,-1.8,30.57,NNE,22,0.0,0.0,49,0.00,,,0.00,meteohub,2013-01-04 14:57:00,
2013-01-04 08:02:00,14.2,-0.9,30.56,NNE,22,0.0,0.0,50,0.00,,,0.00,meteohub,2013-01-04 15:02:00,
2013-01-04 08:07:00,14.4,-0.9,30.56,NNE,22,0.0,0.0,50,0.00,,,0.00,meteohub,2013-01-04 15:07:00,
2013-01-04 08:12:00,14.7,-0.6,30.56,NNE,22,0.0,0.0,50,0.00,,,0.00,meteohub,2013-01-04 15:12:00,
2013-01-04 08:17:00,15.1,0.3,30.55,NNE,22,0.0,0.0,51,0.00,,,0.00,meteohub,2013-01-04 15:17:00,
2013-01-04 08:22:00,15.4,0.5,30.54,NNE,22,0.0,0.0,51,0.00,,,0.00,meteohub,2013-01-04 15:22:00,
2013-01-04 08:27:00,16.0,1.0,30.54,NNE,22,0.0,0.0,51,0.00,,,0.00,meteohub,2013-01-04 15:27:00,
2013-01-04 08:32:00,16.7,1.8,30.53,NNE,22,0.0,0.0,51,0.00,,,0.00,meteohub,2013-01-04 15:32:00,
2013-01-04 08:37:00,17.1,2.1,30.52,NNE,22,0.0,0.0,51,0.00,,,0.00,meteohub,2013-01-04 15:37:00,
2013-01-04 08:42:00,17.8,2.7,30.51,NNE,22,0.0,0.0,51,0.00,,,0.00,meteohub,2013-01-04 15:42:00,
2013-01-04 08:47:00,18.7,3.6,30.50,South,180,0.0,0.0,51,0.00,,,0.00,meteohub,2013-01-04 15:47:00,
2013-01-04 08:52:00,19.4,4.3,30.49,South,180,0.0,0.0,51,0.00,,,0.00,meteohub,2013-01-04 15:52:00,
2013-01-04 08:57:00,20.1,5.0,30.48,SSE,158,0.0,0.0,51,0.00,,,0.00,meteohub,2013-01-04 15:57:00,
2013-01-04 09:02:00,21.0,5.4,30.47,SE,135,0.0,0.0,50,0.00,,,0.00,meteohub,2013-01-04 16:02:00,
2013-01-04 09:07:00,21.6,5.9,30.46,SE,135,0.0,0.0,50,0.00,,,0.00,meteohub,2013-01-04 16:07:00,
2013-01-04 09:12:00,22.1,5.9,30.46,ESE,112,0.0,0.0,49,0.00,,,0.00,meteohub,2013-01-04 16:12:00,
2013-01-04 09:17:00,22.8,6.1,30.45,ESE,112,0.0,0.0,48,0.00,,,0.00,meteohub,2013-01-04 16:17:00,
2013-01-04 09:22:00,23.4,6.6,30.44,East,90,0.0,0.0,48,0.00,,,0.00,meteohub,2013-01-04 16:22:00,
2013-01-04 09:32:00,24.8,7.5,30.42,SSE,158,0.0,0.0,47,0.00,,,0.00,meteohub,2013-01-04 16:32:00,
2013-01-04 09:37:00,25.3,7.5,30.42,ESE,112,0.0,1.0,46,0.00,,,0.00,meteohub,2013-01-04 16:37:00,
2013-01-04 09:42:00,25.9,8.1,30.41,ESE,112,0.0,2.0,46,0.00,,,0.00,meteohub,2013-01-04 16:42:00,
2013-01-04 09:47:00,26.4,8.1,30.40,ESE,112,0.0,2.0,45,0.00,,,0.00,meteohub,2013-01-04 16:47:00,
2013-01-04 09:52:00,27.1,8.1,30.39,ESE,112,0.0,2.0,44,0.00,,,0.00,meteohub,2013-01-04 16:52:00,
2013-01-04 09:57:00,27.9,8.8,30.38,ESE,112,0.0,1.0,44,0.00,,,0.00,meteohub,2013-01-04 16:57:00,
2013-01-04 10:02:00,28.6,9.0,30.38,SE,135,0.0,1.0,43,0.00,,,0.00,meteohub,2013-01-04 17:02:00,
2013-01-04 10:07:00,29.3,9.7,30.37,ESE,112,1.0,2.0,43,0.00,,,0.00,meteohub,2013-01-04 17:07:00,
2013-01-04 10:12:00,30.2,10.4,30.35,SSE,158,0.0,2.0,43,0.00,,,0.00,meteohub,2013-01-04 17:12:00,
2013-01-04 10:17:00,30.7,10.4,30.35,ESE,112,0.0,2.0,42,0.00,,,0.00,meteohub,2013-01-04 17:17:00,
2013-01-04 10:22:00,31.3,10.9,30.34,ESE,112,1.0,4.0,42,0.00,,,0.00,meteohub,2013-01-04 17:22:00,
2013-01-04 10:27:00,32.4,11.3,30.33,ESE,112,0.0,4.0,41,0.00,,,0.00,meteohub,2013-01-04 17:27:00,
2013-01-04 10:32:00,32.9,11.8,30.32,ENE,68,0.0,4.0,41,0.00,,,0.00,meteohub,2013-01-04 17:32:00,
2013-01-04 10:37:00,33.3,12.2,30.32,ESE,112,0.0,4.0,41,0.00,,,0.00,meteohub,2013-01-04 17:37:00,
2013-01-04 10:42:00,33.8,12.7,30.31,ESE,112,1.0,4.0,41,0.00,,,0.00,meteohub,2013-01-04 17:42:00,
2013-01-04 10:47:00,34.3,12.6,30.30,ESE,112,0.0,4.0,40,0.00,,,0.00,meteohub,2013-01-04 17:47:00,
2013-01-04 10:52:00,34.9,13.1,30.30,SE,135,0.0,5.0,40,0.00,,,0.00,meteohub,2013-01-04 17:52:00,
2013-01-04 10:57:00,35.4,13.6,30.29,East,90,0.0,5.0,40,0.00,,,0.00,meteohub,2013-01-04 17:57:00,
2013-01-04 11:02:00,35.8,13.8,30.28,NNE,22,0.0,5.0,40,0.00,,,0.00,meteohub,2013-01-04 18:02:00,
2013-01-04 11:07:00,36.3,14.4,30.28,SE,135,2.0,3.0,40,0.00,,,0.00,meteohub,2013-01-04 18:07:00,
2013-01-04 11:12:00,37.0,14.4,30.27,SSE,158,0.0,3.0,39,0.00,,,0.00,meteohub,2013-01-04 18:12:00,
2013-01-04 11:17:00,37.6,14.9,30.23,ESE,112,0.0,3.0,39,0.00,,,0.00,meteohub,2013-01-04 18:17:00,
2013-01-04 11:22:00,38.1,14.9,30.22,ESE,112,0.0,4.0,38,0.00,,,0.00,meteohub,2013-01-04 18:22:00,
2013-01-04 11:27:00,38.7,15.3,30.21,ESE,112,0.0,4.0,38,0.00,,,0.00,meteohub,2013-01-04 18:27:00,
2013-01-04 11:32:00,39.2,15.3,30.21,SSE,158,4.0,4.0,37,0.00,,,0.00,meteohub,2013-01-04 18:32:00,
2013-01-04 11:37:00,39.7,15.1,30.20,SE,135,3.0,5.0,36,0.00,,,0.00,meteohub,2013-01-04 18:37:00,
2013-01-04 11:42:00,40.3,14.9,30.19,SE,135,0.0,5.0,35,0.00,,,0.00,meteohub,2013-01-04 18:42:00,
2013-01-04 11:47:00,40.8,15.4,30.19,East,90,0.0,5.0,35,0.00,,,0.00,meteohub,2013-01-04 18:47:00,
2013-01-04 11:52:00,41.4,14.5,30.18,ESE,112,0.0,5.0,33,0.00,,,0.00,meteohub,2013-01-04 18:52:00,
2013-01-04 11:57:00,41.7,14.7,30.18,SSE,158,0.0,5.0,33,0.00,,,0.00,meteohub,2013-01-04 18:57:00,
2013-01-04 12:02:00,42.1,14.4,30.14,ESE,112,2.0,5.0,32,0.00,,,0.00,meteohub,2013-01-04 19:02:00,
2013-01-04 12:07:00,42.4,14.7,30.13,South,180,0.0,3.0,32,0.00,,,0.00,meteohub,2013-01-04 19:07:00,
2013-01-04 12:12:00,43.0,14.5,30.13,SE,135,0.0,3.0,31,0.00,,,0.00,meteohub,2013-01-04 19:12:00,
2013-01-04 12:17:00,43.3,14.7,30.12,ESE,112,2.0,4.0,31,0.00,,,0.00,meteohub,2013-01-04 19:17:00,
2013-01-04 12:22:00,43.7,14.4,30.12,ESE,112,2.0,4.0,30,0.00,,,0.00,meteohub,2013-01-04 19:22:00,
2013-01-04 12:27:00,44.1,14.7,30.11,SSE,158,0.0,4.0,30,0.00,,,0.00,meteohub,2013-01-04 19:27:00,
2013-01-04 12:32:00,44.6,14.4,30.11,ESE,112,3.0,4.0,29,0.00,,,0.00,meteohub,2013-01-04 19:32:00,
2013-01-04 12:37:00,45.0,14.7,30.10,SSE,158,0.0,5.0,29,0.00,,,0.00,meteohub,2013-01-04 19:37:00,
2013-01-04 12:42:00,45.3,15.1,30.10,ESE,112,0.0,5.0,29,0.00,,,0.00,meteohub,2013-01-04 19:42:00,
2013-01-04 12:47:00,45.5,14.4,30.06,ESE,112,0.0,5.0,28,0.00,,,0.00,meteohub,2013-01-04 19:47:00,
2013-01-04 12:52:00,45.9,14.7,30.06,West,270,0.0,5.0,28,0.00,,,0.00,meteohub,2013-01-04 19:52:00,
2013-01-04 12:57:00,45.9,14.7,30.06,SW,225,0.0,5.0,28,0.00,,,0.00,meteohub,2013-01-04 19:57:00,
2013-01-04 13:02:00,46.2,14.9,30.05,ESE,112,0.0,5.0,28,0.00,,,0.00,meteohub,2013-01-04 20:02:00,
2013-01-04 13:07:00,46.6,15.3,30.05,ENE,68,4.0,4.0,28,0.00,,,0.00,meteohub,2013-01-04 20:07:00,
2013-01-04 13:12:00,46.9,14.7,30.04,North,0,0.0,4.0,27,0.00,,,0.00,meteohub,2013-01-04 20:12:00,
2013-01-04 13:17:00,47.1,14.9,30.04,NNE,22,4.0,4.0,27,0.00,,,0.00,meteohub,2013-01-04 20:17:00,
2013-01-04 13:22:00,47.3,15.1,30.04,ENE,68,0.0,4.0,27,0.00,,,0.00,meteohub,2013-01-04 20:22:00,
2013-01-04 13:27:00,47.7,15.4,30.04,ESE,112,3.0,5.0,27,0.00,,,0.00,meteohub,2013-01-04 20:27:00,
2013-01-04 13:32:00,47.7,15.4,30.04,NNW,338,2.0,5.0,27,0.00,,,0.00,meteohub,2013-01-04 20:32:00,
2013-01-04 13:37:00,47.7,15.4,30.04,East,90,0.0,5.0,27,0.00,,,0.00,meteohub,2013-01-04 20:37:00,
2013-01-04 13:42:00,48.0,15.6,30.03,ESE,112,1.0,4.0,27,0.00,,,0.00,meteohub,2013-01-04 20:42:00,
2013-01-04 13:47:00,48.0,15.6,30.03,East,90,4.0,5.0,27,0.00,,,0.00,meteohub,2013-01-04 20:47:00,
2013-01-04 13:52:00,48.0,15.6,30.03,NNW,338,1.0,5.0,27,0.00,,,0.00,meteohub,2013-01-04 20:52:00,
2013-01-04 13:57:00,48.2,15.1,30.03,NNW,338,0.0,5.0,26,0.00,,,0.00,meteohub,2013-01-04 20:57:00,
2013-01-04 14:02:00,48.2,15.8,30.03,SSE,158,3.0,5.0,27,0.00,,,0.00,meteohub,2013-01-04 21:02:00,
2013-01-04 14:07:00,48.2,15.1,30.03,ENE,68,0.0,5.0,26,0.00,,,0.00,meteohub,2013-01-04 21:07:00,
2013-01-04 14:12:00,48.2,15.1,30.03,NNW,338,0.0,5.0,26,0.00,,,0.00,meteohub,2013-01-04 21:12:00,
2013-01-04 14:17:00,48.4,15.1,30.03,WNW,292,0.0,5.0,26,0.00,,,0.00,meteohub,2013-01-04 21:17:00,
2013-01-04 14:22:00,48.4,15.1,30.03,ENE,68,3.0,3.0,26,0.00,,,0.00,meteohub,2013-01-04 21:22:00,
2013-01-04 14:27:00,48.4,15.1,30.03,ENE,68,2.0,5.0,26,0.00,,,0.00,meteohub,2013-01-04 21:27:00,
2013-01-04 14:32:00,48.4,15.1,30.03,NNE,22,0.0,5.0,26,0.00,,,0.00,meteohub,2013-01-04 21:32:00,
2013-01-04 14:37:00,48.2,13.1,30.03,NNW,338,0.0,4.0,24,0.00,,,0.00,meteohub,2013-01-04 21:37:00,
2013-01-04 14:42:00,48.2,13.1,30.03,NNE,22,3.0,4.0,24,0.00,,,0.00,meteohub,2013-01-04 21:42:00,
2013-01-04 14:47:00,48.0,13.1,29.99,North,0,3.0,4.0,24,0.00,,,0.00,meteohub,2013-01-04 21:47:00,
2013-01-04 14:52:00,47.7,12.7,30.00,ENE,68,0.0,6.0,24,0.00,,,0.00,meteohub,2013-01-04 21:52:00,
2013-01-04 14:57:00,47.5,12.6,30.00,East,90,0.0,6.0,24,0.00,,,0.00,meteohub,2013-01-04 21:57:00,
2013-01-04 15:02:00,47.5,12.6,30.00,NNE,22,0.0,6.0,24,0.00,,,0.00,meteohub,2013-01-04 22:02:00,
2013-01-04 15:07:00,47.5,12.6,30.00,NNW,338,0.0,6.0,24,0.00,,,0.00,meteohub,2013-01-04 22:07:00,
2013-01-04 15:17:00,47.3,12.4,30.00,ENE,68,4.0,5.0,24,0.00,,,0.00,meteohub,2013-01-04 22:17:00,
2013-01-04 15:22:00,47.3,12.4,30.00,ENE,68,3.0,4.0,24,0.00,,,0.00,meteohub,2013-01-04 22:22:00,
2013-01-04 15:27:00,47.1,12.2,30.01,WNW,292,1.0,5.0,24,0.00,,,0.00,meteohub,2013-01-04 22:27:00,
2013-01-04 15:37:00,46.8,14.5,30.01,East,90,3.0,6.0,27,0.00,,,0.00,meteohub,2013-01-04 22:37:00,
2013-01-04 15:42:00,46.6,14.5,30.01,NNE,22,2.0,6.0,27,0.00,,,0.00,meteohub,2013-01-04 22:42:00,
2013-01-04 15:47:00,46.4,14.4,30.01,NNE,22,0.0,6.0,27,0.00,,,0.00,meteohub,2013-01-04 22:47:00,
2013-01-04 15:52:00,46.2,14.2,30.01,NE,45,0.0,5.0,27,0.00,,,0.00,meteohub,2013-01-04 22:52:00,
2013-01-04 15:57:00,45.9,13.8,30.02,NE,45,3.0,5.0,27,0.00,,,0.00,meteohub,2013-01-04 22:57:00,
2013-01-04 16:02:00,45.3,13.5,30.03,NNW,338,0.0,5.0,27,0.00,,,0.00,meteohub,2013-01-04 23:02:00,
2013-01-04 16:07:00,44.8,12.9,30.03,ENE,68,3.0,4.0,27,0.00,,,0.00,meteohub,2013-01-04 23:07:00,
2013-01-04 16:12:00,44.4,13.5,30.04,NNE,22,0.0,4.0,28,0.00,,,0.00,meteohub,2013-01-04 23:12:00,
2013-01-04 16:17:00,43.9,12.9,30.04,NE,45,0.0,3.0,28,0.00,,,0.00,meteohub,2013-01-04 23:17:00,
2013-01-04 16:22:00,43.2,12.4,30.05,NNE,22,0.0,3.0,28,0.00,,,0.00,meteohub,2013-01-04 23:22:00,
2013-01-04 16:27:00,42.4,11.7,30.06,NE,45,0.0,3.0,28,0.00,,,0.00,meteohub,2013-01-04 23:27:00,
2013-01-04 16:32:00,41.5,10.9,30.07,NE,45,0.0,2.0,28,0.00,,,0.00,meteohub,2013-01-04 23:32:00,
2013-01-04 16:37:00,40.6,10.9,30.08,ENE,68,2.0,0.0,29,0.00,,,0.00,meteohub,2013-01-04 23:37:00,
2013-01-04 16:42:00,39.9,10.4,30.09,ENE,68,0.0,2.0,29,0.00,,,0.00,meteohub,2013-01-04 23:42:00,
2013-01-04 16:47:00,39.0,9.5,30.10,ENE,68,0.0,2.0,29,0.00,,,0.00,meteohub,2013-01-04 23:47:00,
2013-01-04 16:52:00,38.3,9.0,30.11,ENE,68,0.0,2.0,29,0.00,,,0.00,meteohub,2013-01-04 23:52:00,
2013-01-04 16:57:00,37.6,9.0,30.12,ENE,68,0.0,0.0,30,0.00,,,0.00,meteohub,2013-01-04 23:57:00,
2013-01-04 17:02:00,36.5,8.1,30.13,ENE,68,0.0,0.0,30,0.00,,,0.00,meteohub,2013-01-05 00:02:00,
2013-01-04 17:07:00,35.8,7.5,30.14,ENE,68,0.0,0.0,30,0.00,,,0.00,meteohub,2013-01-05 00:07:00,
2013-01-04 17:12:00,35.1,7.5,30.15,ENE,68,0.0,0.0,31,0.00,,,0.00,meteohub,2013-01-05 00:12:00,
2013-01-04 17:17:00,34.5,7.2,30.19,ENE,68,0.0,0.0,31,0.00,,,0.00,meteohub,2013-01-05 00:17:00,
2013-01-04 17:22:00,34.0,6.6,30.20,ENE,68,0.0,0.0,31,0.00,,,0.00,meteohub,2013-01-05 00:22:00,
2013-01-04 17:32:00,33.4,6.8,30.17,NNE,22,0.0,0.0,32,0.00,,,0.00,meteohub,2013-01-05 00:32:00,
2013-01-04 17:42:00,32.5,6.6,30.18,NNE,22,0.0,0.0,33,0.00,,,0.00,meteohub,2013-01-05 00:42:00,
2013-01-04 17:47:00,31.5,6.4,30.23,NNE,22,0.0,0.0,34,0.00,,,0.00,meteohub,2013-01-05 00:47:00,
2013-01-04 17:52:00,30.7,5.7,30.24,NNE,22,0.0,0.0,34,0.00,,,0.00,meteohub,2013-01-05 00:52:00,
2013-01-04 17:57:00,30.4,5.4,30.24,NNE,22,0.0,0.0,34,0.00,,,0.00,meteohub,2013-01-05 00:57:00,
2013-01-04 18:02:00,29.8,6.3,30.21,NNE,22,0.0,0.0,36,0.00,,,0.00,meteohub,2013-01-05 01:02:00,
2013-01-04 18:07:00,29.3,5.7,30.22,ENE,68,0.0,0.0,36,0.00,,,0.00,meteohub,2013-01-05 01:07:00,
2013-01-04 18:12:00,28.6,5.0,30.23,ENE,68,0.0,0.0,36,0.00,,,0.00,meteohub,2013-01-05 01:12:00,
2013-01-04 18:17:00,28.4,5.5,30.27,ENE,68,0.0,0.0,37,0.00,,,0.00,meteohub,2013-01-05 01:17:00,
2013-01-04 18:22:00,28.0,5.7,30.27,ENE,68,0.0,0.0,38,0.00,,,0.00,meteohub,2013-01-05 01:22:00,
2013-01-04 18:27:00,27.9,5.5,30.27,ENE,68,0.0,0.0,38,0.00,,,0.00,meteohub,2013-01-05 01:27:00,
2013-01-04 18:37:00,27.0,5.9,30.29,ENE,68,0.0,0.0,40,0.00,,,0.00,meteohub,2013-01-05 01:37:00,
2013-01-04 18:42:00,26.8,5.7,30.29,ENE,68,0.0,0.0,40,0.00,,,0.00,meteohub,2013-01-05 01:42:00,
2013-01-04 18:47:00,26.4,5.9,30.29,ENE,68,0.0,0.0,41,0.00,,,0.00,meteohub,2013-01-05 01:47:00,
2013-01-04 18:52:00,26.2,5.7,30.30,ENE,68,0.0,0.0,41,0.00,,,0.00,meteohub,2013-01-05 01:52:00,
2013-01-04 18:57:00,26.1,6.1,30.30,ENE,68,0.0,0.0,42,0.00,,,0.00,meteohub,2013-01-05 01:57:00,
2013-01-04 19:02:00,25.9,5.9,30.26,ENE,68,0.0,0.0,42,0.00,,,0.00,meteohub,2013-01-05 02:02:00,
2013-01-04 19:07:00,25.7,5.9,30.27,ENE,68,0.0,0.0,42,0.00,,,0.00,meteohub,2013-01-05 02:07:00,
2013-01-04 19:12:00,25.7,5.9,30.27,ENE,68,0.0,0.0,42,0.00,,,0.00,meteohub,2013-01-05 02:12:00,
2013-01-04 19:17:00,25.5,5.7,30.30,ENE,68,0.0,0.0,42,0.00,,,0.00,meteohub,2013-01-05 02:17:00,
2013-01-04 19:22:00,25.3,6.1,30.31,ENE,68,0.0,0.0,43,0.00,,,0.00,meteohub,2013-01-05 02:22:00,
2013-01-04 19:27:00,25.2,5.9,30.31,ENE,68,0.0,0.0,43,0.00,,,0.00,meteohub,2013-01-05 02:27:00,
2013-01-04 19:32:00,25.0,5.7,30.31,ENE,68,0.0,0.0,43,0.00,,,0.00,meteohub,2013-01-05 02:32:00,
2013-01-04 19:37:00,25.0,5.7,30.31,ENE,68,0.0,0.0,43,0.00,,,0.00,meteohub,2013-01-05 02:37:00,
2013-01-04 19:42:00,24.8,6.1,30.31,ENE,68,0.0,0.0,44,0.00,,,0.00,meteohub,2013-01-05 02:42:00,
2013-01-04 19:47:00,24.6,5.9,30.32,ENE,68,0.0,0.0,44,0.00,,,0.00,meteohub,2013-01-05 02:47:00,
2013-01-04 19:52:00,24.4,5.7,30.32,ENE,68,0.0,0.0,44,0.00,,,0.00,meteohub,2013-01-05 02:52:00,
2013-01-04 19:57:00,24.4,5.7,30.32,ENE,68,0.0,0.0,44,0.00,,,0.00,meteohub,2013-01-05 02:57:00,
2013-01-04 20:02:00,24.4,5.7,30.28,ENE,68,0.0,0.0,44,0.00,,,0.00,meteohub,2013-01-05 03:02:00,
2013-01-04 20:07:00,24.3,5.5,30.28,ENE,68,0.0,0.0,44,0.00,,,0.00,meteohub,2013-01-05 03:07:00,
2013-01-04 20:12:00,24.1,5.4,30.29,ENE,68,0.0,0.0,44,0.00,,,0.00,meteohub,2013-01-05 03:12:00,
2013-01-04 20:17:00,24.1,5.4,30.29,ENE,68,0.0,0.0,44,0.00,,,0.00,meteohub,2013-01-05 03:17:00,
2013-01-04 20:22:00,23.9,5.7,30.29,ENE,68,0.0,0.0,45,0.00,,,0.00,meteohub,2013-01-05 03:22:00,
2013-01-04 20:27:00,23.9,5.7,30.29,ENE,68,0.0,0.0,45,0.00,,,0.00,meteohub,2013-01-05 03:27:00,
2013-01-04 20:32:00,23.7,5.5,30.33,ENE,68,0.0,0.0,45,0.00,,,0.00,meteohub,2013-01-05 03:32:00,
2013-01-04 20:37:00,23.5,5.4,30.33,ENE,68,0.0,0.0,45,0.00,,,0.00,meteohub,2013-01-05 03:37:00,
2013-01-04 20:42:00,23.5,5.4,30.33,ENE,68,0.0,0.0,45,0.00,,,0.00,meteohub,2013-01-05 03:42:00,
2013-01-04 20:47:00,23.4,5.2,30.30,ENE,68,0.0,0.0,45,0.00,,,0.00,meteohub,2013-01-05 03:47:00,
2013-01-04 20:52:00,23.4,5.2,30.30,ENE,68,0.0,0.0,45,0.00,,,0.00,meteohub,2013-01-05 03:52:00,
2013-01-04 20:57:00,23.2,5.0,30.30,ENE,68,0.0,0.0,45,0.00,,,0.00,meteohub,2013-01-05 03:57:00,
2013-01-04 21:02:00,23.0,5.4,30.34,ENE,68,0.0,0.0,46,0.00,,,0.00,meteohub,2013-01-05 04:02:00,
2013-01-04 21:07:00,22.8,5.2,30.34,ENE,68,0.0,0.0,46,0.00,,,0.00,meteohub,2013-01-05 04:07:00,
2013-01-04 21:12:00,22.8,5.2,30.34,ENE,68,0.0,0.0,46,0.00,,,0.00,meteohub,2013-01-05 04:12:00,
2013-01-04 21:17:00,22.6,5.0,30.34,ENE,68,0.0,0.0,46,0.00,,,0.00,meteohub,2013-01-05 04:17:00,
2013-01-04 21:22:00,22.5,4.8,30.34,ENE,68,0.0,0.0,46,0.00,,,0.00,meteohub,2013-01-05 04:22:00,
2013-01-04 21:27:00,22.5,5.4,30.34,ENE,68,0.0,0.0,47,0.00,,,0.00,meteohub,2013-01-05 04:27:00,
2013-01-04 21:32:00,22.3,5.2,30.35,ENE,68,0.0,0.0,47,0.00,,,0.00,meteohub,2013-01-05 04:32:00,
2013-01-04 21:37:00,22.1,5.0,30.35,ENE,68,0.0,0.0,47,0.00,,,0.00,meteohub,2013-01-05 04:37:00,
2013-01-04 21:42:00,21.9,4.8,30.35,ENE,68,0.0,0.0,47,0.00,,,0.00,meteohub,2013-01-05 04:42:00,
2013-01-04 21:47:00,21.7,4.6,30.35,ENE,68,0.0,0.0,47,0.00,,,0.00,meteohub,2013-01-05 04:47:00,
2013-01-04 21:52:00,21.4,4.8,30.36,ENE,68,0.0,0.0,48,0.00,,,0.00,meteohub,2013-01-05 04:52:00,
2013-01-04 21:57:00,21.2,4.6,30.36,ENE,68,0.0,0.0,48,0.00,,,0.00,meteohub,2013-01-05 04:57:00,
2013-01-04 22:02:00,21.0,4.5,30.36,ENE,68,0.0,0.0,48,0.00,,,0.00,meteohub,2013-01-05 05:02:00,
2013-01-04 22:07:00,21.0,4.8,30.36,ENE,68,0.0,0.0,49,0.00,,,0.00,meteohub,2013-01-05 05:07:00,
2013-01-04 22:12:00,20.8,4.6,30.36,ENE,68,0.0,0.0,49,0.00,,,0.00,meteohub,2013-01-05 05:12:00,
2013-01-04 22:17:00,20.7,4.6,30.37,ENE,68,0.0,0.0,49,0.00,,,0.00,meteohub,2013-01-05 05:17:00,
2013-01-04 22:22:00,20.7,4.6,30.37,ENE,68,0.0,0.0,49,0.00,,,0.00,meteohub,2013-01-05 05:22:00,
2013-01-04 22:27:00,20.5,4.8,30.37,ENE,68,0.0,0.0,50,0.00,,,0.00,meteohub,2013-01-05 05:27:00,
2013-01-04 22:32:00,20.5,4.8,30.37,ENE,68,0.0,0.0,50,0.00,,,0.00,meteohub,2013-01-05 05:32:00,
2013-01-04 22:37:00,20.5,4.8,30.37,NNW,338,3.0,3.0,50,0.00,,,0.00,meteohub,2013-01-05 05:37:00,
2013-01-04 22:42:00,21.7,6.8,30.35,NNW,338,4.0,4.0,52,0.00,,,0.00,meteohub,2013-01-05 05:42:00,
2013-01-04 22:47:00,23.9,9.3,30.32,NNW,338,1.0,5.0,53,0.00,,,0.00,meteohub,2013-01-05 05:47:00,
2013-01-04 22:52:00,25.3,10.2,30.31,NNW,338,4.0,5.0,52,0.00,,,0.00,meteohub,2013-01-05 05:52:00,
2013-01-04 22:57:00,26.4,10.4,30.29,NNW,338,3.0,5.0,50,0.00,,,0.00,meteohub,2013-01-05 05:57:00,
2013-01-04 23:02:00,27.1,10.0,30.28,WNW,292,3.0,6.0,48,0.00,,,0.00,meteohub,2013-01-05 06:02:00,
2013-01-04 23:07:00,27.9,10.2,30.27,NW,315,2.0,6.0,47,0.00,,,0.00,meteohub,2013-01-05 06:07:00,
2013-01-04 23:12:00,28.2,10.0,30.27,NNW,338,4.0,6.0,46,0.00,,,0.00,meteohub,2013-01-05 06:12:00,
2013-01-04 23:17:00,28.4,9.9,30.27,NNE,22,3.0,6.0,45,0.00,,,0.00,meteohub,2013-01-05 06:17:00,
2013-01-04 23:22:00,28.6,10.0,30.27,NNE,22,3.0,5.0,45,0.00,,,0.00,meteohub,2013-01-05 06:22:00,
2013-01-04 23:27:00,28.4,9.9,30.27,NNE,22,1.0,5.0,45,0.00,,,0.00,meteohub,2013-01-05 06:27:00,
2013-01-04 23:32:00,28.2,9.7,30.27,NNE,22,2.0,5.0,45,0.00,,,0.00,meteohub,2013-01-05 06:32:00,
2013-01-04 23:37:00,28.0,9.5,30.27,NNE,22,0.0,5.0,45,0.00,,,0.00,meteohub,2013-01-05 06:37:00,
2013-01-04 23:42:00,27.9,9.3,30.27,NNE,22,3.0,5.0,45,0.00,,,0.00,meteohub,2013-01-05 06:42:00,
2013-01-04 23:47:00,27.7,8.6,30.28,NNE,22,0.0,5.0,44,0.00,,,0.00,meteohub,2013-01-05 06:47:00,
2013-01-04 23:52:00,27.1,8.1,30.28,ENE,68,0.0,4.0,44,0.00,,,0.00,meteohub,2013-01-05 06:52:00,
2013-01-04 23:57:00,26.2,7.9,30.30,ENE,68,0.0,4.0,45,0.00,,,0.00,meteohub,2013-01-05 06:57:00,